createdAt,value
2018-08-19T00:01:12.274Z,7.40
2018-08-19T00:03:16.182Z,7.33
2018-08-19T00:05:20.075Z,5.53
2018-08-19T00:07:23.644Z,7.17
2018-08-19T00:09:27.538Z,6.10
2018-08-19T00:11:31.098Z,7.73
2018-08-19T00:13:35.473Z,6.83
2018-08-19T00:15:39.636Z,6.10
2018-08-19T00:17:43.300Z,7.37
2018-08-19T00:19:46.798Z,9.83
2018-08-19T00:21:50.433Z,7.63
2018-08-19T00:23:53.931Z,5.87
2018-08-19T00:25:57.868Z,6.97
2018-08-19T00:28:01.621Z,6.93
2018-08-19T00:30:08.216Z,8.00
2018-08-19T00:32:12.840Z,7.57
2018-08-19T00:34:20.967Z,10.00
2018-08-19T00:36:27.892Z,7.13
2018-08-19T00:38:31.433Z,7.07
2018-08-19T00:40:34.947Z,7.33
2018-08-19T00:42:38.584Z,7.93
2018-08-19T00:44:42.367Z,6.60
2018-08-19T00:46:46.236Z,8.10
2018-08-19T00:48:49.783Z,7.73
2018-08-19T00:50:53.298Z,6.40
2018-08-19T00:52:56.802Z,7.73
2018-08-19T00:55:00.389Z,7.00
2018-08-19T00:57:03.976Z,8.57
2018-08-19T00:59:09.827Z,7.00
2018-08-19T01:01:26.071Z,8.23
2018-08-19T01:03:31.968Z,7.50
2018-08-19T01:05:35.422Z,6.37
2018-08-19T01:07:38.880Z,6.00
2018-08-19T01:09:42.428Z,6.27
2018-08-19T01:11:45.966Z,7.30
2018-08-19T01:13:49.460Z,6.73
2018-08-19T01:15:53.049Z,7.17
2018-08-19T01:17:57.792Z,6.53
2018-08-19T01:20:03.573Z,7.20
2018-08-19T01:22:07.035Z,6.83
2018-08-19T01:24:12.275Z,9.27
2018-08-19T01:26:15.775Z,6.47
2018-08-19T01:28:19.257Z,6.47
2018-08-19T01:30:26.415Z,8.90
2018-08-19T01:32:29.906Z,6.87
2018-08-19T01:34:33.818Z,6.47
2018-08-19T01:36:37.643Z,7.23
2018-08-19T01:38:41.110Z,7.10
2018-08-19T01:40:44.540Z,9.13
2018-08-19T01:42:48.065Z,7.60
2018-08-19T01:44:51.539Z,7.47
2018-08-19T01:46:55.056Z,6.60
2018-08-19T01:48:58.553Z,6.60
2018-08-19T01:51:02.052Z,7.37
2018-08-19T01:53:06.195Z,6.63
2018-08-19T01:55:10.360Z,6.80
2018-08-19T01:57:13.859Z,8.43
2018-08-19T01:59:17.398Z,6.53
2018-08-19T02:01:21.017Z,8.17
2018-08-19T02:03:24.908Z,8.00
2018-08-19T02:05:28.396Z,6.80
2018-08-19T02:07:31.923Z,7.10
2018-08-19T02:09:35.532Z,7.00
2018-08-19T02:11:39.030Z,7.23
2018-08-19T02:13:42.644Z,7.60
2018-08-19T02:15:46.206Z,6.70
2018-08-19T02:17:55.863Z,6.70
2018-08-19T02:19:59.386Z,6.67
2018-08-19T02:22:02.931Z,6.63
2018-08-19T02:24:06.839Z,6.87
2018-08-19T02:26:10.841Z,6.57
2018-08-19T02:28:16.739Z,7.10
2018-08-19T02:30:20.280Z,6.17
2018-08-19T02:32:23.790Z,7.27
2018-08-19T02:34:32.540Z,7.70
2018-08-19T02:36:36.412Z,7.90
2018-08-19T02:38:39.942Z,8.10
2018-08-19T02:40:43.457Z,7.97
2018-08-19T02:42:47.412Z,7.70
2018-08-19T02:44:53.817Z,6.90
2018-08-19T02:46:57.378Z,7.23
2018-08-19T02:49:00.877Z,7.20
2018-08-19T02:51:04.444Z,7.30
2018-08-19T02:53:07.953Z,6.77
2018-08-19T02:55:11.462Z,7.37
2018-08-19T02:57:14.976Z,6.93
2018-08-19T02:59:18.561Z,7.67
2018-08-19T03:01:22.082Z,7.10
2018-08-19T03:03:25.567Z,7.23
2018-08-19T03:05:29.111Z,7.97
2018-08-19T03:07:33.263Z,7.23
2018-08-19T03:09:36.743Z,8.57
2018-08-19T03:11:40.808Z,6.70
2018-08-19T03:13:44.251Z,8.20
2018-08-19T03:15:47.840Z,9.23
2018-08-19T03:17:51.336Z,8.13
2018-08-19T03:19:57.326Z,9.27
2018-08-19T03:22:01.752Z,7.37
2018-08-19T03:24:05.262Z,7.47
2018-08-19T03:26:09.472Z,7.30
2018-08-19T03:28:13.041Z,7.30
2018-08-19T03:30:16.657Z,6.97
2018-08-19T03:32:20.235Z,6.80
2018-08-19T03:34:24.350Z,7.30
2018-08-19T03:36:27.837Z,6.03
2018-08-19T03:38:31.390Z,10.43
2018-08-19T03:40:34.913Z,7.57
2018-08-19T03:42:38.423Z,6.67
2018-08-19T03:44:42.006Z,8.43
2018-08-19T03:46:45.554Z,8.67
2018-08-19T03:48:56.202Z,7.53
2018-08-19T03:50:59.692Z,6.63
2018-08-19T03:53:03.243Z,7.20
2018-08-19T03:55:10.604Z,7.57
2018-08-19T03:57:14.628Z,7.30
2018-08-19T03:59:18.101Z,7.97
2018-08-19T04:01:32.916Z,7.97
2018-08-19T04:03:36.468Z,7.90
2018-08-19T04:05:46.156Z,7.33
2018-08-19T04:07:49.630Z,8.50
2018-08-19T04:09:56.106Z,7.20
2018-08-19T04:12:07.595Z,7.13
2018-08-19T04:14:42.342Z,8.83
2018-08-19T04:16:45.849Z,7.63
2018-08-19T04:18:49.337Z,8.13
2018-08-19T04:20:52.854Z,14.47
2018-08-19T04:22:56.364Z,10.60
2018-08-19T04:24:59.854Z,11.20
2018-08-19T04:27:05.706Z,7.97
2018-08-19T04:29:13.552Z,10.73
2018-08-19T04:31:23.376Z,8.00
2018-08-19T04:33:31.384Z,10.93
2018-08-19T04:35:34.871Z,9.20
2018-08-19T04:37:38.378Z,9.70
2018-08-19T04:39:41.918Z,8.23
2018-08-19T04:41:45.476Z,8.00
2018-08-19T04:43:49.228Z,8.70
2018-08-19T04:45:52.831Z,7.20
2018-08-19T04:47:56.362Z,6.43
2018-08-19T04:49:59.931Z,7.93
2018-08-19T04:52:03.491Z,6.43
2018-08-19T04:54:07.384Z,6.47
2018-08-19T04:56:10.879Z,7.33
2018-08-19T04:58:14.416Z,8.63
2018-08-19T05:00:17.943Z,7.10
2018-08-19T05:02:21.673Z,6.37
2018-08-19T05:04:25.262Z,6.57
2018-08-19T05:06:28.772Z,8.60
2018-08-19T05:08:32.309Z,6.23
2018-08-19T05:10:35.980Z,5.53
2018-08-19T05:12:39.536Z,6.57
2018-08-19T05:14:43.012Z,6.53
2018-08-19T05:16:46.535Z,9.23
2018-08-19T05:18:55.219Z,8.23
2018-08-19T05:21:03.964Z,5.87
2018-08-19T05:23:08.098Z,5.63
2018-08-19T05:25:11.998Z,7.83
2018-08-19T05:27:16.989Z,7.80
2018-08-19T05:29:20.531Z,7.13
2018-08-19T05:31:24.050Z,5.90
2018-08-19T05:33:27.809Z,5.50
2018-08-19T05:35:32.162Z,6.03
2018-08-19T05:37:35.664Z,5.80
2018-08-19T05:39:45.014Z,5.77
2018-08-19T05:42:01.986Z,6.20
2018-08-19T05:44:05.588Z,7.00
2018-08-19T05:46:09.796Z,5.53
2018-08-19T05:48:13.442Z,5.97
2018-08-19T05:50:17.324Z,7.27
2018-08-19T05:52:21.827Z,7.03
2018-08-19T05:54:25.377Z,7.47
2018-08-19T05:56:29.239Z,5.80
2018-08-19T05:58:32.795Z,8.77
2018-08-19T06:00:40.273Z,7.47
2018-08-19T06:02:44.865Z,6.27
2018-08-19T06:04:48.362Z,6.63
2018-08-19T06:06:55.991Z,7.97
2018-08-19T06:08:59.552Z,5.53
2018-08-19T06:11:03.025Z,7.93
2018-08-19T06:13:07.658Z,6.37
2018-08-19T06:15:11.203Z,6.20
2018-08-19T06:17:14.717Z,5.90
2018-08-19T06:19:18.665Z,8.20
2018-08-19T06:21:22.169Z,6.60
2018-08-19T06:23:25.666Z,5.60
2018-08-19T06:25:29.251Z,5.73
2018-08-19T06:27:36.908Z,6.30
2018-08-19T06:29:50.244Z,5.30
2018-08-19T06:31:53.729Z,5.17
2018-08-19T06:33:57.288Z,4.50
2018-08-19T06:36:00.783Z,5.47
2018-08-19T06:38:04.384Z,5.90
2018-08-19T06:40:09.613Z,8.53
2018-08-19T06:42:13.571Z,7.03
2018-08-19T06:44:23.507Z,5.03
2018-08-19T06:46:27.010Z,5.83
2018-08-19T06:48:30.527Z,5.93
2018-08-19T06:50:35.336Z,4.33
2018-08-19T06:52:38.935Z,5.43
2018-08-19T06:54:42.863Z,3.37
2018-08-19T06:56:46.743Z,3.97
2018-08-19T06:58:50.293Z,4.03
2018-08-19T07:00:53.780Z,6.37
2018-08-19T07:03:00.249Z,2.60
2018-08-19T07:05:03.853Z,5.10
2018-08-19T07:07:16.203Z,5.83
2018-08-19T07:09:19.771Z,6.13
2018-08-19T07:11:23.270Z,6.80
2018-08-19T07:13:27.152Z,5.63
2018-08-19T07:15:31.087Z,4.13
2018-08-19T07:17:34.813Z,4.60
2018-08-19T07:19:39.017Z,4.60
2018-08-19T07:21:42.628Z,3.33
2018-08-19T07:23:46.234Z,3.87
2018-08-19T07:25:49.849Z,4.63
2018-08-19T07:27:53.466Z,5.30
2018-08-19T07:29:57.016Z,6.10
2018-08-19T07:32:00.512Z,5.97
2018-08-19T07:34:04.102Z,4.73
2018-08-19T07:36:07.975Z,5.47
2018-08-19T07:38:11.853Z,6.23
2018-08-19T07:40:15.414Z,5.47
2018-08-19T07:42:18.919Z,6.47
2018-08-19T07:44:22.517Z,5.73
2018-08-19T07:46:26.071Z,5.63
2018-08-19T07:48:29.568Z,5.20
2018-08-19T07:50:33.084Z,4.83
2018-08-19T07:52:36.643Z,4.23
2018-08-19T07:54:40.191Z,5.43
2018-08-19T07:56:43.700Z,4.70
2018-08-19T07:58:52.262Z,8.30
2018-08-19T08:00:55.759Z,4.73
2018-08-19T08:02:59.251Z,4.73
2018-08-19T08:05:02.852Z,5.87
2018-08-19T08:07:06.764Z,6.13
2018-08-19T08:09:11.148Z,5.17
2018-08-19T08:11:14.728Z,6.30
2018-08-19T08:13:18.380Z,5.43
2018-08-19T08:15:22.016Z,5.57
2018-08-19T08:17:26.800Z,6.33
2018-08-19T08:19:30.339Z,6.67
2018-08-19T08:21:34.051Z,5.17
2018-08-19T08:23:37.624Z,6.33
2018-08-19T08:25:41.172Z,7.17
2018-08-19T08:27:44.718Z,6.97
2018-08-19T08:29:48.265Z,5.50
2018-08-19T08:31:56.196Z,5.97
2018-08-19T08:33:59.651Z,9.30
2018-08-19T08:36:03.556Z,7.90
2018-08-19T08:38:07.028Z,5.93
2018-08-19T08:40:11.399Z,5.33
2018-08-19T08:42:14.941Z,5.40
2018-08-19T08:44:18.438Z,5.13
2018-08-19T08:46:21.954Z,4.10
2018-08-19T08:48:25.504Z,4.00
2018-08-19T08:50:29.041Z,5.40
2018-08-19T08:52:32.560Z,5.03
2018-08-19T08:54:36.107Z,5.90
2018-08-19T08:56:39.592Z,5.03
2018-08-19T08:58:43.535Z,3.97
2018-08-19T09:00:47.580Z,5.93
2018-08-19T09:02:51.075Z,4.57
2018-08-19T09:04:55.707Z,4.13
2018-08-19T09:06:59.243Z,7.70
2018-08-19T09:09:02.792Z,4.67
2018-08-19T09:11:06.522Z,4.93
2018-08-19T09:13:10.118Z,4.10
2018-08-19T09:15:13.614Z,6.53
2018-08-19T09:17:17.555Z,4.80
2018-08-19T09:19:21.405Z,4.57
2018-08-19T09:21:25.713Z,5.50
2018-08-19T09:23:29.364Z,3.90
2018-08-19T09:25:33.034Z,3.45
2018-08-19T09:27:37.839Z,6.30
2018-08-19T09:29:41.301Z,4.10
2018-08-19T09:31:44.860Z,3.87
2018-08-19T09:33:48.352Z,3.30
2018-08-19T09:35:51.929Z,4.67
2018-08-19T09:38:03.439Z,3.10
2018-08-19T09:40:06.929Z,3.23
2018-08-19T09:42:11.483Z,1.97
2018-08-19T09:44:14.992Z,3.93
2018-08-19T09:46:18.903Z,3.23
2018-08-19T09:48:22.813Z,3.60
2018-08-19T09:50:27.990Z,4.43
2018-08-19T09:52:31.522Z,3.57
2018-08-19T09:54:36.621Z,6.07
2018-08-19T09:56:40.871Z,3.10
2018-08-19T09:58:49.966Z,2.50
2018-08-19T10:00:58.789Z,3.30
2018-08-19T10:03:02.510Z,2.17
2018-08-19T10:05:07.252Z,3.40
2018-08-19T10:07:12.936Z,3.90
2018-08-19T10:09:16.587Z,5.12
2018-08-19T10:11:20.099Z,2.35
2018-08-19T10:13:23.591Z,2.83
2018-08-19T10:15:28.065Z,4.33
2018-08-19T10:17:31.571Z,4.53
2018-08-19T10:19:35.473Z,2.03
2018-08-19T10:21:39.047Z,4.08
2018-08-19T10:23:43.172Z,3.83
2018-08-19T10:25:46.719Z,2.47
2018-08-19T10:27:53.048Z,3.30
2018-08-19T10:29:56.674Z,2.80
2018-08-19T10:32:06.993Z,3.30
2018-08-19T10:34:11.199Z,5.20
2018-08-19T10:36:14.735Z,4.23
2018-08-19T10:38:18.320Z,4.37
2018-08-19T10:40:21.817Z,3.67
2018-08-19T10:42:26.520Z,4.40
2018-08-19T10:44:30.036Z,4.87
2018-08-19T10:46:33.559Z,2.97
2018-08-19T10:48:37.844Z,2.60
2018-08-19T10:50:41.746Z,4.00
2018-08-19T10:52:45.288Z,3.07
2018-08-19T10:54:49.196Z,3.27
2018-08-19T10:56:52.751Z,3.13
2018-08-19T10:58:59.336Z,1.50
2018-08-19T11:01:03.293Z,2.47
2018-08-19T11:03:24.946Z,2.20
2018-08-19T11:05:28.616Z,3.37
2018-08-19T11:07:32.181Z,3.27
2018-08-19T11:09:45.567Z,3.03
2018-08-19T11:11:49.095Z,4.13
2018-08-19T11:13:52.690Z,5.37
2018-08-19T11:15:57.305Z,2.20
2018-08-19T11:18:24.157Z,3.67
2018-08-19T11:20:32.992Z,2.83
2018-08-19T11:22:36.517Z,2.93
2018-08-19T11:24:40.079Z,3.83
2018-08-19T11:26:44.720Z,2.70
2018-08-19T11:28:52.436Z,5.17
2018-08-19T11:30:56.355Z,2.80
2018-08-19T11:32:59.884Z,2.37
2018-08-19T11:35:03.564Z,2.60
2018-08-19T11:37:07.485Z,4.00
2018-08-19T11:39:13.005Z,3.60
2018-08-19T11:41:16.708Z,4.77
2018-08-19T11:43:20.373Z,3.13
2018-08-19T11:45:24.041Z,2.80
2018-08-19T11:47:27.629Z,2.40
2018-08-19T11:49:31.196Z,2.00
2018-08-19T11:51:46.938Z,2.13
2018-08-19T11:53:50.520Z,2.50
2018-08-19T11:55:54.068Z,2.80
2018-08-19T11:57:57.849Z,3.30
2018-08-19T12:00:07.870Z,2.03
2018-08-19T12:02:15.683Z,3.27
2018-08-19T12:04:19.406Z,4.83
2018-08-19T12:06:24.586Z,3.13
2018-08-19T12:08:28.110Z,3.07
2018-08-19T12:10:31.675Z,4.00
2018-08-19T12:12:46.407Z,2.43
2018-08-19T12:14:49.947Z,2.10
2018-08-19T12:16:56.672Z,3.33
2018-08-19T12:19:05.392Z,3.00
2018-08-19T12:21:09.230Z,2.43
2018-08-19T12:23:12.717Z,3.57
2018-08-19T12:25:16.286Z,3.30
2018-08-19T12:27:22.482Z,2.57
2018-08-19T12:29:28.533Z,3.73
2018-08-19T12:31:32.079Z,4.67
2018-08-19T12:33:35.630Z,3.63
2018-08-19T12:35:39.146Z,4.33
2018-08-19T12:37:42.701Z,3.80
2018-08-19T12:39:46.462Z,3.73
2018-08-19T12:41:53.599Z,4.17
2018-08-19T12:44:00.145Z,2.93
2018-08-19T12:46:04.181Z,2.47
2018-08-19T12:48:08.160Z,3.23
2018-08-19T12:50:13.386Z,4.23
2018-08-19T12:52:18.897Z,4.70
2018-08-19T12:54:22.389Z,3.47
2018-08-19T12:56:26.088Z,2.93
2018-08-19T12:58:29.796Z,3.57
2018-08-19T13:00:33.387Z,2.73
2018-08-19T13:02:43.608Z,4.07
2018-08-19T13:04:47.198Z,4.93
2018-08-19T13:07:15.722Z,2.63
2018-08-19T13:09:19.844Z,2.57
2018-08-19T13:11:23.424Z,3.60
2018-08-19T13:13:26.964Z,3.53
2018-08-19T13:15:31.418Z,2.40
2018-08-19T13:17:34.974Z,2.83
2018-08-19T13:19:38.535Z,4.80
2018-08-19T13:21:42.135Z,3.47
2018-08-19T13:23:45.724Z,2.60
2018-08-19T13:25:49.271Z,2.27
2018-08-19T13:27:52.872Z,2.77
2018-08-19T13:29:56.397Z,3.03
2018-08-19T13:31:59.996Z,8.33
2018-08-19T13:34:04.273Z,2.77
2018-08-19T13:36:08.249Z,3.07
2018-08-19T13:38:16.752Z,3.30
2018-08-19T13:40:20.695Z,3.07
2018-08-19T13:42:24.225Z,2.80
2018-08-19T13:44:27.819Z,2.87
2018-08-19T13:46:31.404Z,4.50
2018-08-19T13:48:35.091Z,3.13
2018-08-19T13:50:38.628Z,3.17
2018-08-19T13:52:42.485Z,4.37
2018-08-19T13:55:03.432Z,4.70
2018-08-19T13:57:07.367Z,4.10
2018-08-19T13:59:11.482Z,5.40
2018-08-19T14:01:14.975Z,3.43
2018-08-19T14:03:18.504Z,5.67
2018-08-19T14:05:22.078Z,2.90
2018-08-19T14:07:25.591Z,3.20
2018-08-19T14:09:29.088Z,3.17
2018-08-19T14:11:32.607Z,2.90
2018-08-19T14:13:36.119Z,4.20
2018-08-19T14:15:39.615Z,4.63
2018-08-19T14:17:43.178Z,3.93
2018-08-19T14:19:46.666Z,3.43
2018-08-19T14:21:56.972Z,3.03
2018-08-19T14:24:01.676Z,2.90
2018-08-19T14:26:05.896Z,5.93
2018-08-19T14:28:09.427Z,5.37
2018-08-19T14:30:13.270Z,3.50
2018-08-19T14:32:29.718Z,4.90
2018-08-19T14:34:33.265Z,4.60
2018-08-19T14:36:36.859Z,3.77
2018-08-19T14:38:40.410Z,4.67
2018-08-19T14:40:44.151Z,3.30
2018-08-19T14:42:48.000Z,3.30
2018-08-19T14:44:51.510Z,4.17
2018-08-19T14:46:55.945Z,4.67
2018-08-19T14:49:04.954Z,4.33
2018-08-19T14:51:08.591Z,4.20
2018-08-19T14:53:12.196Z,5.17
2018-08-19T14:55:15.822Z,3.37
2018-08-19T14:57:19.394Z,3.50
2018-08-19T14:59:22.984Z,4.27
2018-08-19T15:01:26.592Z,3.40
2018-08-19T15:03:30.190Z,3.97
2018-08-19T15:05:33.791Z,4.87
2018-08-19T15:07:37.483Z,3.93
2018-08-19T15:09:42.613Z,3.57
2018-08-19T15:11:46.756Z,3.73
2018-08-19T15:13:50.356Z,3.23
2018-08-19T15:15:54.025Z,5.40
2018-08-19T15:18:01.608Z,4.13
2018-08-19T15:20:05.277Z,3.57
2018-08-19T15:22:08.871Z,4.93
2018-08-19T15:24:12.418Z,3.90
2018-08-19T15:26:16.177Z,5.07
2018-08-19T15:28:19.808Z,3.80
2018-08-19T15:30:29.514Z,4.93
2018-08-19T15:32:33.436Z,4.83
2018-08-19T15:34:36.910Z,5.10
2018-08-19T15:36:40.559Z,3.33
2018-08-19T15:38:44.153Z,4.07
2018-08-19T15:40:49.084Z,4.77
2018-08-19T15:42:52.778Z,4.43
2018-08-19T15:44:56.266Z,3.40
2018-08-19T15:47:00.059Z,5.63
2018-08-19T15:49:06.852Z,4.03
2018-08-19T15:51:12.264Z,3.67
2018-08-19T15:53:18.290Z,3.40
2018-08-19T15:55:21.845Z,4.47
2018-08-19T15:57:25.453Z,3.97
2018-08-19T15:59:33.300Z,3.23
2018-08-19T16:01:37.570Z,4.77
2018-08-19T16:03:41.096Z,3.83
2018-08-19T16:05:44.591Z,5.07
2018-08-19T16:07:48.134Z,4.57
2018-08-19T16:09:51.719Z,3.37
2018-08-19T16:11:55.775Z,6.73
2018-08-19T16:13:59.780Z,5.87
2018-08-19T16:16:04.375Z,5.30
2018-08-19T16:18:08.328Z,4.43
2018-08-19T16:20:11.845Z,4.63
2018-08-19T16:22:15.391Z,3.87
2018-08-19T16:24:19.368Z,4.13
2018-08-19T16:26:22.865Z,8.93
2018-08-19T16:28:26.422Z,4.37
2018-08-19T16:30:29.954Z,3.63
2018-08-19T16:32:33.512Z,4.87
2018-08-19T16:34:37.076Z,4.00
2018-08-19T16:36:40.668Z,3.80
2018-08-19T16:38:44.140Z,3.43
2018-08-19T16:40:47.740Z,3.70
2018-08-19T16:42:51.218Z,3.40
2018-08-19T16:44:54.813Z,4.53
2018-08-19T16:46:58.369Z,4.13
2018-08-19T16:49:02.046Z,5.90
2018-08-19T16:51:06.277Z,4.03
2018-08-19T16:53:09.900Z,4.63
2018-08-19T16:55:13.468Z,4.23
2018-08-19T16:57:17.803Z,4.20
2018-08-19T16:59:21.457Z,6.03
2018-08-19T17:01:25.055Z,4.50
2018-08-19T17:03:35.774Z,4.57
2018-08-19T17:05:39.664Z,3.83
2018-08-19T17:07:43.279Z,3.50
2018-08-19T17:09:47.269Z,4.90
2018-08-19T17:11:50.950Z,4.23
2018-08-19T17:13:54.448Z,5.30
2018-08-19T17:15:58.019Z,9.30
2018-08-19T17:18:01.554Z,4.67
2018-08-19T17:20:05.524Z,3.40
2018-08-19T17:22:10.007Z,5.43
2018-08-19T17:24:13.664Z,4.07
2018-08-19T17:26:20.099Z,5.53
2018-08-19T17:28:25.751Z,6.93
2018-08-19T17:30:29.267Z,4.57
2018-08-19T17:32:32.816Z,4.90
2018-08-19T17:34:40.287Z,4.93
2018-08-19T17:36:43.925Z,5.83
2018-08-19T17:38:48.135Z,4.17
2018-08-19T17:40:51.660Z,6.13
2018-08-19T17:42:55.294Z,4.50
2018-08-19T17:44:58.799Z,5.27
2018-08-19T17:47:02.364Z,4.07
2018-08-19T17:49:12.134Z,5.47
2018-08-19T17:51:26.886Z,4.53
2018-08-19T17:53:30.398Z,5.83
2018-08-19T17:55:33.979Z,5.17
2018-08-19T17:57:37.463Z,5.10
2018-08-19T17:59:41.134Z,4.97
2018-08-19T18:01:44.792Z,5.50
2018-08-19T18:03:48.368Z,4.97
2018-08-19T18:05:51.911Z,4.00
2018-08-19T18:07:56.165Z,5.67
2018-08-19T18:10:00.264Z,5.77
2018-08-19T18:12:05.164Z,5.97
2018-08-19T18:14:08.733Z,6.77
2018-08-19T18:16:12.872Z,4.40
2018-08-19T18:18:16.476Z,5.90
2018-08-19T18:20:28.388Z,5.07
2018-08-19T18:22:31.852Z,5.93
2018-08-19T18:24:35.349Z,6.43
2018-08-19T18:26:38.919Z,4.37
2018-08-19T18:28:46.159Z,5.03
2018-08-19T18:30:53.910Z,4.87
2018-08-19T18:32:57.563Z,6.23
2018-08-19T18:35:01.048Z,5.57
2018-08-19T18:37:04.656Z,6.50
2018-08-19T18:39:10.225Z,6.83
2018-08-19T18:41:18.991Z,6.63
2018-08-19T18:43:22.610Z,7.90
2018-08-19T18:45:26.122Z,6.07
2018-08-19T18:47:29.731Z,6.57
2018-08-19T18:49:33.238Z,6.87
2018-08-19T18:51:36.770Z,6.67
2018-08-19T18:53:41.056Z,9.07
2018-08-19T18:55:44.943Z,9.03
2018-08-19T18:57:50.950Z,9.97
2018-08-19T18:59:54.492Z,9.00
2018-08-19T19:02:00.291Z,7.13
2018-08-19T19:04:03.813Z,8.47
2018-08-19T19:06:07.822Z,7.30
2018-08-19T19:08:12.673Z,6.17
2018-08-19T19:10:16.324Z,6.97
2018-08-19T19:12:21.829Z,7.23
2018-08-19T19:14:28.233Z,8.13
2018-08-19T19:16:35.947Z,9.13
2018-08-19T19:18:39.468Z,7.90
2018-08-19T19:21:14.347Z,9.73
2018-08-19T19:23:18.327Z,7.97
2018-08-19T19:25:26.632Z,7.40
2018-08-19T19:27:30.235Z,6.80
2018-08-19T19:29:33.792Z,9.03
2018-08-19T19:31:37.345Z,5.80
2018-08-19T19:33:40.959Z,8.47
2018-08-19T19:35:44.504Z,8.17
2018-08-19T19:37:49.075Z,8.47
2018-08-19T19:40:00.623Z,12.27
2018-08-19T19:42:12.129Z,6.80
2018-08-19T19:44:24.700Z,11.57
2018-08-19T19:46:28.258Z,7.67
2018-08-19T19:48:31.851Z,8.97
2018-08-19T19:50:35.493Z,12.13
2018-08-19T19:52:43.959Z,8.37
2018-08-19T19:54:47.483Z,11.30
2018-08-19T19:56:50.983Z,7.77
2018-08-19T19:58:54.512Z,13.37
2018-08-19T20:00:58.171Z,9.93
2018-08-19T20:03:01.793Z,12.07
2018-08-19T20:05:11.682Z,11.07
2018-08-19T20:07:15.658Z,7.97
2018-08-19T20:09:19.219Z,9.43
2018-08-19T20:11:29.031Z,9.70
2018-08-19T20:13:32.653Z,13.57
2018-08-19T20:15:36.469Z,12.77
2018-08-19T20:17:40.164Z,10.07
2018-08-19T20:19:43.697Z,11.20
2018-08-19T20:21:47.195Z,10.77
2018-08-19T20:23:51.225Z,8.63
2018-08-19T20:25:55.720Z,10.00
2018-08-19T20:28:03.444Z,13.50
2018-08-19T20:30:06.993Z,9.27
2018-08-19T20:32:10.549Z,11.40
2018-08-19T20:34:14.188Z,10.83
2018-08-19T20:36:17.765Z,16.73
2018-08-19T20:38:21.368Z,10.30
2018-08-19T20:40:24.960Z,14.33
2018-08-19T20:42:28.588Z,11.60
2018-08-19T20:44:32.121Z,11.20
2018-08-19T20:46:37.264Z,11.53
2018-08-19T20:48:40.833Z,17.53
2018-08-19T20:50:44.421Z,12.37
2018-08-19T20:52:49.385Z,17.40
2018-08-19T20:54:52.897Z,11.57
2018-08-19T20:56:56.366Z,11.80
2018-08-19T20:58:59.991Z,12.93
2018-08-19T21:01:03.596Z,12.87
2018-08-19T21:03:07.634Z,15.33
2018-08-19T21:05:11.200Z,16.67
2018-08-19T21:07:14.736Z,10.23
2018-08-19T21:09:18.266Z,12.57
2018-08-19T21:11:21.853Z,10.03
2018-08-19T21:13:25.416Z,9.13
2018-08-19T21:15:34.359Z,10.03
2018-08-19T21:17:37.874Z,7.40
2018-08-19T21:19:41.484Z,11.17
2018-08-19T21:21:45.086Z,12.53
2018-08-19T21:23:48.642Z,11.73
2018-08-19T21:25:57.552Z,12.20
2018-08-19T21:28:01.670Z,14.13
2018-08-19T21:30:06.161Z,11.77
2018-08-19T21:32:09.818Z,9.80
2018-08-19T21:34:13.467Z,9.33
2018-08-19T21:36:17.011Z,10.17
2018-08-19T21:38:20.562Z,11.33
2018-08-19T21:40:42.876Z,10.87
2018-08-19T21:42:49.838Z,10.53
2018-08-19T21:44:53.424Z,8.97
2018-08-19T21:46:56.976Z,9.13
2018-08-19T21:49:00.531Z,7.60
2018-08-19T21:51:04.496Z,7.30
2018-08-19T21:53:10.445Z,9.20
2018-08-19T21:55:13.967Z,6.83
2018-08-19T21:57:17.526Z,8.23
2018-08-19T21:59:23.948Z,8.53
2018-08-19T22:01:32.723Z,5.90
2018-08-19T22:03:41.468Z,9.77
2018-08-19T22:05:45.588Z,8.37
2018-08-19T22:07:49.163Z,7.37
2018-08-19T22:09:52.727Z,8.83
2018-08-19T22:11:57.807Z,8.47
2018-08-19T22:14:01.277Z,8.63
2018-08-19T22:16:04.933Z,11.23
2018-08-19T22:18:10.694Z,8.67
2018-08-19T22:20:14.287Z,7.87
2018-08-19T22:22:18.599Z,7.27
2018-08-19T22:24:22.160Z,8.57
2018-08-19T22:26:25.721Z,10.87
2018-08-19T22:28:29.306Z,7.30
2018-08-19T22:30:32.855Z,7.83
2018-08-19T22:32:36.448Z,8.97
2018-08-19T22:34:39.942Z,9.57
2018-08-19T22:36:43.516Z,9.43
2018-08-19T22:38:47.075Z,9.17
2018-08-19T22:40:50.800Z,12.23
2018-08-19T22:42:54.330Z,8.87
2018-08-19T22:44:57.889Z,7.60
2018-08-19T22:47:01.462Z,6.97
2018-08-19T22:49:05.364Z,7.27
2018-08-19T22:51:09.372Z,8.17
2018-08-19T22:53:12.935Z,8.67
2018-08-19T22:55:16.575Z,10.70
2018-08-19T22:57:20.128Z,8.87
2018-08-19T22:59:23.891Z,11.47
2018-08-19T23:01:31.637Z,10.07
2018-08-19T23:03:35.232Z,8.93
2018-08-19T23:05:38.828Z,9.83
2018-08-19T23:07:42.359Z,10.27
2018-08-19T23:09:45.948Z,11.83
2018-08-19T23:11:49.486Z,11.40
2018-08-19T23:14:04.282Z,9.03
2018-08-19T23:16:10.169Z,8.03
2018-08-19T23:18:13.687Z,9.70
2018-08-19T23:20:17.614Z,8.83
2018-08-19T23:22:21.980Z,9.10
2018-08-19T23:24:25.526Z,14.23
2018-08-19T23:26:29.072Z,11.90
2018-08-19T23:28:32.599Z,11.47
2018-08-19T23:30:36.192Z,9.53
2018-08-19T23:32:39.755Z,12.43
2018-08-19T23:34:43.300Z,11.73
2018-08-19T23:36:46.853Z,12.17
2018-08-19T23:38:50.384Z,10.90
2018-08-19T23:40:53.919Z,12.13
2018-08-19T23:42:57.476Z,9.57
2018-08-19T23:45:00.956Z,10.50
2018-08-19T23:47:04.501Z,10.27
2018-08-19T23:49:08.039Z,13.80
2018-08-19T23:51:13.757Z,12.03
2018-08-19T23:53:17.368Z,10.67
2018-08-19T23:55:21.014Z,11.90
2018-08-19T23:57:24.584Z,14.70
2018-08-19T23:59:35.130Z,14.87
